createdAt,value
2022-12-29T00:02:00.682Z,10.10
2022-12-29T00:04:27.343Z,10.00
2022-12-29T00:06:55.150Z,10.00
2022-12-29T00:09:21.915Z,10.00
2022-12-29T00:11:49.078Z,10.00
2022-12-29T00:14:34.140Z,10.10
2022-12-29T00:17:00.816Z,10.00
2022-12-29T00:19:46.627Z,10.00
2022-12-29T00:22:33.013Z,10.00
2022-12-29T00:25:20.222Z,10.00
2022-12-29T00:28:07.440Z,9.90
2022-12-29T00:30:53.508Z,9.90
2022-12-29T00:33:40.786Z,9.90
2022-12-29T00:36:16.371Z,9.90
2022-12-29T00:39:08.758Z,9.90
2022-12-29T00:41:54.082Z,9.80
2022-12-29T00:44:20.733Z,9.80
2022-12-29T00:46:47.502Z,9.80
2022-12-29T00:49:33.002Z,9.80
2022-12-29T00:51:59.595Z,9.80
2022-12-29T00:54:26.430Z,9.80
2022-12-29T00:56:54.182Z,9.90
2022-12-29T00:59:21.598Z,9.90
2022-12-29T01:01:48.638Z,9.90
2022-12-29T01:04:15.668Z,9.90
2022-12-29T01:06:42.883Z,9.90
2022-12-29T01:09:29.272Z,9.90
2022-12-29T01:11:56.599Z,10.00
2022-12-29T01:14:24.659Z,10.00
2022-12-29T01:16:52.172Z,10.00
2022-12-29T01:19:19.847Z,10.00
2022-12-29T01:21:47.242Z,10.00
2022-12-29T01:24:15.456Z,10.00
2022-12-29T01:26:42.139Z,10.00
2022-12-29T01:29:08.920Z,10.00
2022-12-29T01:31:36.089Z,9.90
2022-12-29T01:34:02.754Z,10.00
2022-12-29T01:36:29.403Z,9.90
2022-12-29T01:38:56.051Z,9.90
2022-12-29T01:41:22.731Z,9.90
2022-12-29T01:43:55.982Z,10.00
2022-12-29T01:46:39.785Z,9.90
2022-12-29T01:49:09.399Z,10.00
2022-12-29T01:51:51.619Z,10.00
2022-12-29T01:54:30.727Z,10.00
2022-12-29T01:57:00.431Z,10.00
2022-12-29T01:59:32.292Z,10.00
2022-12-29T02:01:59.627Z,10.00
2022-12-29T02:04:30.537Z,10.00
2022-12-29T02:07:11.731Z,10.10
2022-12-29T02:09:38.387Z,10.10
2022-12-29T02:12:05.178Z,10.10
2022-12-29T02:14:32.174Z,10.10
2022-12-29T02:17:19.861Z,10.10
2022-12-29T02:20:19.092Z,10.10
2022-12-29T02:23:13.481Z,10.20
2022-12-29T02:25:50.217Z,10.10
2022-12-29T02:28:38.663Z,10.10
2022-12-29T02:31:32.513Z,10.00
2022-12-29T02:34:37.964Z,10.00
2022-12-29T02:37:15.473Z,9.90
2022-12-29T02:39:51.446Z,9.90
2022-12-29T02:42:37.285Z,9.90
2022-12-29T02:45:30.702Z,9.80
2022-12-29T02:48:24.538Z,9.80
2022-12-29T02:51:00.406Z,9.70
2022-12-29T02:53:47.461Z,9.70
2022-12-29T02:56:14.164Z,9.60
2022-12-29T02:58:41.124Z,9.60
2022-12-29T03:01:13.890Z,9.50
2022-12-29T03:04:42.601Z,9.50
2022-12-29T03:07:25.045Z,9.50
2022-12-29T03:10:15.357Z,9.40
2022-12-29T03:13:09.285Z,9.40
2022-12-29T03:16:06.575Z,9.40
2022-12-29T03:18:55.974Z,9.50
2022-12-29T03:21:58.312Z,9.40
2022-12-29T03:24:35.920Z,9.50
2022-12-29T03:27:06.120Z,9.50
2022-12-29T03:29:40.344Z,9.50
2022-12-29T03:32:09.845Z,9.50
2022-12-29T03:34:37.889Z,9.50
2022-12-29T03:37:11.455Z,9.50
2022-12-29T03:39:38.415Z,9.40
2022-12-29T03:42:10.264Z,9.40
2022-12-29T03:44:40.136Z,9.40
2022-12-29T03:47:07.253Z,9.40
2022-12-29T03:49:34.657Z,9.40
2022-12-29T03:52:01.313Z,9.40
2022-12-29T03:54:28.016Z,9.40
2022-12-29T03:56:54.678Z,9.40
2022-12-29T03:59:21.337Z,9.40
2022-12-29T04:01:48.174Z,9.40
2022-12-29T04:04:14.944Z,9.40
2022-12-29T04:06:42.327Z,9.50
2022-12-29T04:09:10.296Z,9.40
2022-12-29T04:11:36.862Z,9.50
2022-12-29T04:14:03.589Z,9.50
2022-12-29T04:16:30.221Z,9.50
2022-12-29T04:18:56.802Z,9.50
2022-12-29T04:21:23.407Z,9.50
2022-12-29T04:23:49.988Z,9.50
2022-12-29T04:26:16.644Z,9.50
2022-12-29T04:28:43.217Z,9.50
2022-12-29T04:31:10.325Z,9.50
2022-12-29T04:33:36.968Z,9.50
2022-12-29T04:36:03.814Z,9.50
2022-12-29T04:38:30.461Z,9.50
2022-12-29T04:41:01.091Z,9.50
2022-12-29T04:43:28.377Z,9.50
2022-12-29T04:45:55.130Z,9.60
2022-12-29T04:48:21.994Z,9.50
2022-12-29T04:50:49.643Z,9.40
2022-12-29T04:53:17.027Z,9.50
2022-12-29T04:55:44.207Z,9.50
2022-12-29T04:58:13.972Z,9.50
2022-12-29T05:00:42.859Z,9.60
2022-12-29T05:03:09.847Z,9.50
2022-12-29T05:05:36.907Z,9.50
2022-12-29T05:08:03.668Z,9.50
2022-12-29T05:10:30.757Z,9.50
2022-12-29T05:12:59.013Z,9.50
2022-12-29T05:15:25.597Z,9.50
2022-12-29T05:17:52.293Z,9.50
2022-12-29T05:20:19.368Z,9.50
2022-12-29T05:22:46.010Z,9.50
2022-12-29T05:25:12.660Z,9.50
2022-12-29T05:27:39.292Z,9.50
2022-12-29T05:30:06.574Z,9.50
2022-12-29T05:32:34.330Z,9.50
2022-12-29T05:35:00.925Z,9.40
2022-12-29T05:37:27.559Z,9.40
2022-12-29T05:39:54.145Z,9.40
2022-12-29T05:42:20.823Z,9.50
2022-12-29T05:44:47.459Z,9.50
2022-12-29T05:47:14.194Z,9.50
2022-12-29T05:49:41.195Z,9.40
2022-12-29T05:52:07.805Z,9.40
2022-12-29T05:54:34.414Z,9.40
2022-12-29T05:57:01.013Z,9.50
2022-12-29T05:59:27.579Z,9.50
2022-12-29T06:01:54.313Z,9.50
2022-12-29T06:04:21.179Z,9.50
2022-12-29T06:06:47.834Z,9.50
2022-12-29T06:09:55.126Z,9.60
2022-12-29T06:12:21.721Z,9.50
2022-12-29T06:14:48.461Z,9.50
2022-12-29T06:17:15.247Z,9.50
2022-12-29T06:19:41.919Z,9.50
2022-12-29T06:22:08.487Z,9.40
2022-12-29T06:24:35.105Z,9.50
2022-12-29T06:27:01.716Z,9.50
2022-12-29T06:29:28.906Z,9.50
2022-12-29T06:31:58.856Z,9.40
2022-12-29T06:34:25.887Z,9.40
2022-12-29T06:36:52.914Z,9.50
2022-12-29T06:39:19.697Z,9.50
2022-12-29T06:41:46.304Z,9.50
2022-12-29T06:44:12.993Z,9.50
2022-12-29T06:46:39.632Z,9.50
2022-12-29T06:49:06.256Z,9.50
2022-12-29T06:51:32.838Z,9.50
2022-12-29T06:53:59.441Z,9.50
2022-12-29T06:56:26.044Z,9.50
2022-12-29T06:58:52.666Z,9.40
2022-12-29T07:01:19.436Z,9.40
2022-12-29T07:03:46.159Z,9.40
2022-12-29T07:06:12.779Z,9.40
2022-12-29T07:08:39.515Z,9.40
2022-12-29T07:11:06.887Z,9.30
2022-12-29T07:13:33.487Z,9.30
2022-12-29T07:16:00.180Z,9.30
2022-12-29T07:18:26.808Z,9.30
2022-12-29T07:20:53.476Z,9.30
2022-12-29T07:23:20.056Z,9.30
2022-12-29T07:25:47.888Z,9.30
2022-12-29T07:28:14.483Z,9.30
2022-12-29T07:30:41.183Z,9.30
2022-12-29T07:33:07.798Z,9.30
2022-12-29T07:35:35.763Z,9.30
2022-12-29T07:38:02.453Z,9.30
2022-12-29T07:40:29.051Z,9.30
2022-12-29T07:42:55.619Z,9.30
2022-12-29T07:45:22.378Z,9.30
2022-12-29T07:47:50.280Z,9.20
2022-12-29T07:50:17.256Z,9.20
2022-12-29T07:52:43.988Z,9.20
2022-12-29T07:55:10.628Z,9.20
2022-12-29T07:57:37.233Z,9.20
2022-12-29T08:00:04.752Z,9.20
2022-12-29T08:02:31.406Z,9.20
2022-12-29T08:04:58.066Z,9.20
2022-12-29T08:07:24.712Z,9.30
2022-12-29T08:09:51.323Z,9.40
2022-12-29T08:12:18.678Z,9.40
2022-12-29T08:14:45.415Z,9.30
2022-12-29T08:17:12.132Z,9.30
2022-12-29T08:19:39.074Z,9.30
2022-12-29T08:22:05.757Z,9.30
2022-12-29T08:24:32.329Z,9.30
2022-12-29T08:27:00.825Z,9.40
2022-12-29T08:29:31.427Z,9.40
2022-12-29T08:31:58.278Z,9.40
2022-12-29T08:34:24.892Z,9.50
2022-12-29T08:36:51.497Z,9.50
2022-12-29T08:39:18.237Z,9.50
2022-12-29T08:41:44.905Z,9.60
2022-12-29T08:44:11.622Z,9.70
2022-12-29T08:46:38.230Z,9.90
2022-12-29T08:49:04.887Z,10.00
2022-12-29T08:51:31.620Z,10.00
2022-12-29T08:53:58.412Z,10.10
2022-12-29T08:56:25.044Z,10.10
2022-12-29T08:58:53.392Z,10.00
2022-12-29T09:01:20.537Z,10.10
2022-12-29T09:04:14.396Z,10.10
2022-12-29T09:06:39.871Z,10.10
2022-12-29T09:09:07.158Z,10.20
2022-12-29T09:11:33.855Z,10.20
2022-12-29T09:14:01.022Z,10.20
2022-12-29T09:16:28.004Z,10.20
2022-12-29T09:18:54.841Z,10.20
2022-12-29T09:21:21.482Z,10.20
2022-12-29T09:23:52.257Z,10.10
2022-12-29T09:26:19.258Z,10.10
2022-12-29T09:28:46.428Z,10.10
2022-12-29T09:31:13.095Z,10.20
2022-12-29T09:33:40.039Z,10.20
2022-12-29T09:36:07.306Z,10.20
2022-12-29T09:38:34.052Z,10.20
2022-12-29T09:41:07.816Z,10.20
2022-12-29T09:44:02.948Z,10.20
2022-12-29T09:46:43.627Z,10.20
2022-12-29T09:49:40.728Z,10.20
2022-12-29T09:52:16.412Z,10.20
2022-12-29T09:55:00.128Z,10.20
2022-12-29T09:57:33.265Z,10.20
2022-12-29T10:00:17.847Z,10.20
2022-12-29T10:02:52.755Z,10.20
2022-12-29T10:05:31.640Z,10.20
2022-12-29T10:08:23.290Z,10.30
2022-12-29T10:11:06.361Z,10.50
2022-12-29T10:13:54.891Z,10.60
2022-12-29T10:16:32.550Z,10.50
2022-12-29T10:19:39.935Z,10.50
2022-12-29T10:22:38.174Z,10.50
2022-12-29T10:25:15.981Z,10.50
2022-12-29T10:27:44.016Z,10.50
2022-12-29T10:30:14.460Z,10.60
2022-12-29T10:32:54.100Z,10.60
2022-12-29T10:35:26.921Z,10.50
2022-12-29T10:37:59.460Z,10.50
2022-12-29T10:40:57.969Z,10.60
2022-12-29T10:43:31.151Z,10.60
2022-12-29T10:46:01.983Z,10.60
2022-12-29T10:48:33.915Z,10.70
2022-12-29T10:51:05.824Z,10.80
2022-12-29T10:53:47.000Z,10.90
2022-12-29T10:56:32.704Z,11.10
2022-12-29T10:59:03.782Z,11.30
2022-12-29T11:01:46.856Z,11.40
2022-12-29T11:04:22.843Z,11.30
2022-12-29T11:06:51.377Z,11.40
2022-12-29T11:09:36.491Z,11.30
2022-12-29T11:12:22.391Z,11.20
2022-12-29T11:15:01.245Z,11.10
2022-12-29T11:17:27.814Z,11.00
2022-12-29T11:19:54.499Z,11.00
2022-12-29T11:22:28.473Z,11.00
2022-12-29T11:25:05.540Z,11.00
2022-12-29T11:27:33.786Z,11.00
2022-12-29T11:30:00.385Z,11.00
2022-12-29T11:32:32.413Z,10.90
2022-12-29T11:34:59.781Z,10.90
2022-12-29T11:37:40.106Z,10.80
2022-12-29T11:40:18.725Z,10.70
2022-12-29T11:43:05.577Z,10.80
2022-12-29T11:45:36.058Z,10.80
2022-12-29T11:48:09.889Z,10.80
2022-12-29T11:50:40.212Z,10.80
2022-12-29T11:53:15.067Z,10.80
2022-12-29T11:55:51.220Z,10.80
2022-12-29T11:58:18.260Z,10.80
2022-12-29T12:00:46.863Z,10.80
2022-12-29T12:03:25.213Z,10.80
2022-12-29T12:06:02.690Z,10.70
2022-12-29T12:08:44.790Z,10.70
2022-12-29T12:11:34.150Z,10.70
2022-12-29T12:14:07.099Z,10.80
2022-12-29T12:16:47.069Z,10.80
2022-12-29T12:19:25.563Z,10.80
2022-12-29T12:22:02.001Z,10.80
2022-12-29T12:24:35.622Z,10.80
2022-12-29T12:27:11.845Z,10.80
2022-12-29T12:29:42.405Z,10.70
2022-12-29T12:32:21.861Z,10.70
2022-12-29T12:34:50.035Z,10.80
2022-12-29T12:37:57.554Z,10.70
2022-12-29T12:40:49.369Z,10.70
2022-12-29T12:43:45.415Z,10.70
2022-12-29T12:46:18.326Z,10.70
2022-12-29T12:49:08.299Z,10.70
2022-12-29T12:52:02.889Z,10.60
2022-12-29T12:54:59.718Z,10.60
2022-12-29T12:57:32.426Z,10.50
2022-12-29T13:00:06.148Z,10.60
2022-12-29T13:02:54.470Z,10.50
2022-12-29T13:05:35.198Z,10.50
2022-12-29T13:08:25.733Z,10.50
2022-12-29T13:10:59.194Z,10.50
2022-12-29T13:14:00.138Z,10.50
2022-12-29T13:16:46.888Z,10.50
2022-12-29T13:19:35.562Z,10.50
2022-12-29T13:22:09.488Z,10.50
2022-12-29T13:25:13.419Z,10.40
2022-12-29T13:27:53.408Z,10.50
2022-12-29T13:30:23.313Z,10.40
2022-12-29T13:33:22.466Z,10.40
2022-12-29T13:35:57.220Z,10.40
2022-12-29T13:38:37.272Z,10.40
2022-12-29T13:41:10.238Z,10.40
2022-12-29T13:43:40.791Z,10.40
2022-12-29T13:46:15.347Z,10.40
2022-12-29T13:48:51.868Z,10.40
2022-12-29T13:51:24.078Z,10.40
2022-12-29T13:54:30.866Z,10.40
2022-12-29T13:57:27.552Z,10.40
2022-12-29T14:00:12.867Z,10.30
2022-12-29T14:03:30.043Z,10.40
2022-12-29T14:06:23.343Z,10.40
2022-12-29T14:08:59.175Z,10.40
2022-12-29T14:11:39.722Z,10.40
2022-12-29T14:14:21.882Z,10.30
2022-12-29T14:16:49.178Z,10.40
2022-12-29T14:19:24.637Z,10.60
2022-12-29T14:22:03.921Z,10.70
2022-12-29T14:24:36.598Z,10.70
2022-12-29T14:27:12.262Z,10.60
2022-12-29T14:29:41.939Z,10.50
2022-12-29T14:32:26.920Z,10.40
2022-12-29T14:34:58.450Z,10.40
2022-12-29T14:37:29.472Z,10.40
2022-12-29T14:40:03.865Z,10.30
2022-12-29T14:42:31.701Z,10.40
2022-12-29T14:45:13.805Z,10.30
2022-12-29T14:47:52.218Z,10.30
2022-12-29T14:50:42.898Z,10.20
2022-12-29T14:53:48.590Z,10.20
2022-12-29T14:56:17.886Z,10.10
2022-12-29T14:58:49.698Z,10.00
2022-12-29T15:01:40.337Z,9.80
2022-12-29T15:04:22.404Z,9.80
2022-12-29T15:06:50.723Z,9.70
2022-12-29T15:09:34.577Z,9.70
2022-12-29T15:12:16.790Z,9.70
2022-12-29T15:14:58.564Z,9.70
2022-12-29T15:17:30.918Z,9.60
2022-12-29T15:20:00.618Z,9.50
2022-12-29T15:22:28.496Z,9.50
2022-12-29T15:24:56.558Z,9.50
2022-12-29T15:27:25.813Z,9.50
2022-12-29T15:30:02.497Z,9.40
2022-12-29T15:32:39.484Z,9.40
2022-12-29T15:35:30.734Z,9.40
2022-12-29T15:37:58.258Z,9.40
2022-12-29T15:40:31.151Z,9.40
2022-12-29T15:43:28.401Z,9.40
2022-12-29T15:45:55.972Z,9.40
2022-12-29T15:48:25.151Z,9.40
2022-12-29T15:50:52.737Z,9.40
2022-12-29T15:53:33.162Z,9.20
2022-12-29T15:56:11.125Z,9.10
2022-12-29T15:58:48.504Z,9.10
2022-12-29T16:01:29.156Z,9.10
2022-12-29T16:03:56.659Z,9.10
2022-12-29T16:06:23.244Z,9.00
2022-12-29T16:08:59.420Z,9.10
2022-12-29T16:11:35.295Z,9.00
2022-12-29T16:14:07.762Z,9.00
2022-12-29T16:16:38.817Z,9.00
2022-12-29T16:19:13.734Z,8.90
2022-12-29T16:21:42.262Z,9.00
2022-12-29T16:24:19.278Z,9.00
2022-12-29T16:27:02.975Z,9.00
2022-12-29T16:29:31.420Z,9.00
2022-12-29T16:32:06.457Z,9.00
2022-12-29T16:34:43.842Z,9.00
2022-12-29T16:37:32.123Z,9.00
2022-12-29T16:40:18.805Z,8.90
2022-12-29T16:42:51.845Z,8.80
2022-12-29T16:45:42.182Z,8.70
2022-12-29T16:48:32.321Z,8.60
2022-12-29T16:51:04.291Z,8.40
2022-12-29T16:53:40.634Z,8.20
2022-12-29T16:56:19.123Z,8.10
2022-12-29T16:58:51.859Z,8.00
2022-12-29T17:01:20.139Z,8.00
2022-12-29T17:03:57.785Z,8.10
2022-12-29T17:06:24.829Z,8.10
2022-12-29T17:08:52.532Z,8.20
2022-12-29T17:11:52.482Z,8.40
2022-12-29T17:14:34.610Z,8.60
2022-12-29T17:17:02.094Z,8.60
2022-12-29T17:19:34.471Z,8.50
2022-12-29T17:22:01.287Z,8.40
2022-12-29T17:24:28.190Z,8.40
2022-12-29T17:27:00.546Z,8.30
2022-12-29T17:29:45.715Z,8.20
2022-12-29T17:32:14.642Z,8.10
2022-12-29T17:34:41.704Z,8.10
2022-12-29T17:37:25.272Z,8.10
2022-12-29T17:39:52.054Z,8.10
2022-12-29T17:42:19.713Z,8.10
2022-12-29T17:44:46.742Z,8.00
2022-12-29T17:47:15.716Z,8.00
2022-12-29T17:49:48.316Z,8.00
2022-12-29T17:52:17.506Z,7.90
2022-12-29T17:54:52.724Z,7.70
2022-12-29T17:57:20.999Z,7.60
2022-12-29T17:59:47.971Z,7.60
2022-12-29T18:02:31.328Z,7.50
2022-12-29T18:04:59.503Z,7.60
2022-12-29T18:07:32.558Z,7.60
2022-12-29T18:10:02.113Z,7.50
2022-12-29T18:12:40.764Z,7.50
2022-12-29T18:15:21.985Z,7.50
2022-12-29T18:17:49.507Z,7.40
2022-12-29T18:20:16.834Z,7.40
2022-12-29T18:22:43.705Z,7.20
2022-12-29T18:25:31.637Z,7.20
2022-12-29T18:27:58.218Z,7.20
2022-12-29T18:30:25.035Z,7.10
2022-12-29T18:32:51.624Z,7.10
2022-12-29T18:35:28.213Z,7.10
2022-12-29T18:37:55.030Z,7.00
2022-12-29T18:40:21.642Z,6.80
2022-12-29T18:42:48.227Z,6.80
2022-12-29T18:45:20.762Z,6.70
2022-12-29T18:47:47.642Z,6.70
2022-12-29T18:50:15.055Z,6.70
2022-12-29T18:52:41.650Z,6.70
2022-12-29T18:55:14.035Z,6.70
2022-12-29T18:57:40.877Z,6.70
2022-12-29T19:00:09.229Z,6.70
2022-12-29T19:02:36.177Z,6.90
2022-12-29T19:05:07.895Z,6.90
2022-12-29T19:07:35.449Z,7.00
2022-12-29T19:10:02.170Z,7.10
2022-12-29T19:12:28.909Z,7.10
2022-12-29T19:14:55.579Z,7.10
2022-12-29T19:17:22.167Z,7.20
2022-12-29T19:19:48.931Z,7.30
2022-12-29T19:22:15.582Z,7.30
2022-12-29T19:24:42.385Z,7.40
2022-12-29T19:27:09.230Z,7.40
2022-12-29T19:29:36.043Z,7.50
2022-12-29T19:32:02.785Z,7.60
2022-12-29T19:34:29.405Z,7.60
2022-12-29T19:36:56.656Z,7.60
2022-12-29T19:39:23.328Z,7.60
2022-12-29T19:41:49.928Z,7.70
2022-12-29T19:44:17.210Z,7.70
2022-12-29T19:46:43.822Z,7.70
2022-12-29T19:49:10.520Z,7.80
2022-12-29T19:51:37.208Z,7.80
2022-12-29T19:54:03.886Z,7.80
2022-12-29T19:56:31.131Z,7.80
2022-12-29T19:58:57.800Z,7.80
2022-12-29T20:01:24.818Z,7.90
2022-12-29T20:03:51.830Z,7.80
2022-12-29T20:06:19.129Z,7.80
2022-12-29T20:08:45.730Z,7.80
2022-12-29T20:11:14.953Z,7.90
2022-12-29T20:13:42.311Z,7.90
2022-12-29T20:16:13.168Z,7.80
2022-12-29T20:18:40.087Z,7.80
2022-12-29T20:21:22.985Z,7.90
2022-12-29T20:23:51.284Z,7.90
2022-12-29T20:26:20.858Z,7.80
2022-12-29T20:28:47.906Z,7.80
2022-12-29T20:31:29.353Z,7.80
2022-12-29T20:33:56.433Z,7.70
2022-12-29T20:36:26.310Z,7.80
2022-12-29T20:38:55.002Z,7.70
2022-12-29T20:41:22.673Z,7.80
2022-12-29T20:43:49.920Z,7.70
2022-12-29T20:46:20.874Z,7.70
2022-12-29T20:48:48.991Z,7.70
2022-12-29T20:51:15.780Z,7.70
2022-12-29T20:53:42.627Z,7.70
2022-12-29T20:56:20.442Z,7.70
2022-12-29T20:59:17.552Z,7.70
2022-12-29T21:01:35.409Z,7.60
2022-12-29T21:04:02.232Z,7.60
2022-12-29T21:06:28.924Z,7.60
2022-12-29T21:08:55.614Z,7.50
2022-12-29T21:11:23.138Z,7.50
2022-12-29T21:13:49.858Z,7.40
2022-12-29T21:16:18.889Z,7.50
2022-12-29T21:18:45.720Z,7.50
2022-12-29T21:21:21.036Z,7.40
2022-12-29T21:23:48.375Z,7.30
2022-12-29T21:26:17.938Z,7.10
2022-12-29T21:28:46.107Z,7.10
2022-12-29T21:31:19.222Z,6.90
2022-12-29T21:33:45.819Z,6.80
2022-12-29T21:36:12.434Z,6.60
2022-12-29T21:38:39.139Z,6.40
2022-12-29T21:41:11.335Z,6.30
2022-12-29T21:43:38.681Z,6.20
2022-12-29T21:46:06.475Z,5.90
2022-12-29T21:48:34.046Z,5.90
2022-12-29T21:51:31.527Z,5.70
2022-12-29T21:54:20.492Z,5.60
2022-12-29T21:56:48.721Z,5.40
2022-12-29T21:59:35.047Z,5.30
2022-12-29T22:02:22.725Z,5.20
2022-12-29T22:05:08.168Z,5.20
2022-12-29T22:07:53.699Z,5.20
2022-12-29T22:10:39.013Z,5.20
2022-12-29T22:13:05.615Z,5.10
2022-12-29T22:15:35.549Z,5.00
2022-12-29T22:18:03.562Z,4.90
2022-12-29T22:20:31.911Z,4.90
2022-12-29T22:23:00.019Z,4.80
2022-12-29T22:25:26.937Z,4.70
2022-12-29T22:27:58.943Z,4.60
2022-12-29T22:30:28.159Z,4.50
2022-12-29T22:32:56.588Z,4.40
2022-12-29T22:35:23.296Z,4.30
2022-12-29T22:37:50.002Z,4.40
2022-12-29T22:40:16.835Z,4.40
2022-12-29T22:42:43.490Z,4.40
2022-12-29T22:45:10.532Z,4.30
2022-12-29T22:47:37.199Z,4.50
2022-12-29T22:50:05.339Z,4.40
2022-12-29T22:52:31.973Z,4.50
2022-12-29T22:55:04.602Z,4.40
2022-12-29T22:57:33.393Z,4.50
2022-12-29T23:00:00.037Z,4.50
2022-12-29T23:02:27.242Z,4.50
2022-12-29T23:05:09.501Z,4.50
2022-12-29T23:07:36.384Z,4.50
2022-12-29T23:10:04.887Z,4.60
2022-12-29T23:12:32.061Z,4.60
2022-12-29T23:14:58.971Z,4.60
2022-12-29T23:17:25.859Z,4.70
2022-12-29T23:19:53.557Z,4.90
2022-12-29T23:22:20.636Z,5.00
2022-12-29T23:24:47.225Z,4.90
2022-12-29T23:27:13.940Z,4.90
2022-12-29T23:29:40.579Z,4.80
2022-12-29T23:32:07.187Z,4.50
2022-12-29T23:34:33.835Z,4.40
2022-12-29T23:37:00.478Z,4.40
2022-12-29T23:39:28.593Z,4.20
2022-12-29T23:41:55.345Z,4.10
2022-12-29T23:44:21.921Z,4.00
2022-12-29T23:46:48.680Z,3.90
2022-12-29T23:49:15.775Z,3.80
2022-12-29T23:51:43.169Z,3.70
2022-12-29T23:54:09.844Z,3.70
2022-12-29T23:56:36.488Z,3.50
2022-12-29T23:59:05.041Z,3.40
